createdAt,value
2022-09-20T00:01:17.979Z,14.80
2022-09-20T00:03:46.675Z,14.30
2022-09-20T00:06:16.449Z,14.57
2022-09-20T00:08:44.138Z,15.30
2022-09-20T00:11:18.526Z,14.70
2022-09-20T00:13:47.372Z,14.83
2022-09-20T00:16:17.517Z,14.90
2022-09-20T00:18:47.799Z,14.23
2022-09-20T00:21:17.836Z,14.47
2022-09-20T00:23:45.464Z,13.93
2022-09-20T00:26:13.957Z,14.20
2022-09-20T00:28:41.727Z,14.07
2022-09-20T00:31:08.717Z,13.80
2022-09-20T00:33:54.124Z,14.10
2022-09-20T00:36:21.183Z,13.70
2022-09-20T00:38:47.997Z,13.80
2022-09-20T00:41:15.288Z,13.30
2022-09-20T00:43:44.911Z,13.70
2022-09-20T00:46:36.021Z,14.00
2022-09-20T00:49:19.148Z,14.20
2022-09-20T00:51:51.263Z,13.87
2022-09-20T00:54:20.874Z,14.47
2022-09-20T00:56:48.793Z,14.33
2022-09-20T00:59:22.810Z,14.27
2022-09-20T01:01:55.670Z,14.10
2022-09-20T01:04:25.480Z,13.50
2022-09-20T01:06:54.733Z,13.47
2022-09-20T01:09:21.722Z,13.63
2022-09-20T01:11:50.885Z,13.50
2022-09-20T01:14:23.723Z,13.33
2022-09-20T01:16:53.526Z,13.37
2022-09-20T01:19:25.692Z,13.50
2022-09-20T01:21:53.415Z,13.97
2022-09-20T01:24:33.637Z,13.93
2022-09-20T01:27:41.656Z,13.70
2022-09-20T01:30:16.928Z,13.37
2022-09-20T01:33:18.878Z,14.23
2022-09-20T01:35:49.620Z,13.03
2022-09-20T01:38:22.080Z,13.17
2022-09-20T01:41:27.040Z,13.60
2022-09-20T01:44:21.114Z,13.80
2022-09-20T01:46:58.285Z,13.90
2022-09-20T01:49:47.005Z,13.17
2022-09-20T01:52:47.313Z,13.43
2022-09-20T01:55:38.396Z,13.33
2022-09-20T01:58:16.401Z,13.90
2022-09-20T02:01:01.682Z,13.50
2022-09-20T02:03:51.811Z,13.17
2022-09-20T02:06:43.162Z,13.43
2022-09-20T02:09:31.196Z,13.10
2022-09-20T02:12:23.108Z,13.30
2022-09-20T02:15:23.995Z,13.40
2022-09-20T02:18:07.575Z,13.63
2022-09-20T02:20:56.993Z,13.33
2022-09-20T02:23:35.790Z,13.37
2022-09-20T02:26:33.743Z,14.00
2022-09-20T02:29:36.327Z,14.30
2022-09-20T02:32:36.914Z,13.37
2022-09-20T02:35:29.000Z,13.40
2022-09-20T02:38:31.135Z,13.10
2022-09-20T02:41:35.420Z,13.50
2022-09-20T02:44:07.457Z,12.57
2022-09-20T02:46:50.570Z,13.07
2022-09-20T02:49:58.944Z,13.60
2022-09-20T02:53:02.867Z,13.27
2022-09-20T02:55:42.087Z,13.07
2022-09-20T02:58:27.549Z,13.30
2022-09-20T03:01:20.146Z,13.60
2022-09-20T03:04:24.172Z,13.73
2022-09-20T03:07:09.717Z,13.63
2022-09-20T03:09:54.909Z,13.80
2022-09-20T03:12:54.788Z,14.17
2022-09-20T03:15:38.920Z,13.60
2022-09-20T03:18:14.731Z,13.83
2022-09-20T03:20:50.503Z,14.03
2022-09-20T03:23:33.054Z,14.23
2022-09-20T03:26:34.392Z,13.33
2022-09-20T03:29:24.321Z,13.27
2022-09-20T03:32:17.610Z,12.83
2022-09-20T03:34:50.006Z,13.43
2022-09-20T03:37:38.166Z,13.70
2022-09-20T03:40:19.908Z,13.73
2022-09-20T03:42:49.843Z,13.27
2022-09-20T03:45:56.156Z,14.07
2022-09-20T03:48:46.360Z,13.63
2022-09-20T03:51:37.507Z,13.43
2022-09-20T03:54:25.712Z,12.93
2022-09-20T03:57:04.472Z,13.83
2022-09-20T03:59:55.494Z,13.50
2022-09-20T04:02:36.177Z,13.93
2022-09-20T04:05:02.949Z,13.80
2022-09-20T04:08:04.099Z,13.23
2022-09-20T04:10:53.528Z,13.80
2022-09-20T04:13:38.278Z,13.73
2022-09-20T04:16:11.370Z,13.80
2022-09-20T04:19:00.834Z,13.80
2022-09-20T04:21:59.347Z,13.60
2022-09-20T04:24:48.384Z,13.50
2022-09-20T04:27:29.059Z,13.87
2022-09-20T04:29:58.569Z,13.87
2022-09-20T04:32:42.944Z,13.50
2022-09-20T04:36:13.412Z,13.90
2022-09-20T04:38:40.928Z,13.80
2022-09-20T04:41:37.876Z,14.00
2022-09-20T04:44:12.087Z,14.10
2022-09-20T04:47:27.820Z,13.80
2022-09-20T04:50:12.711Z,14.03
2022-09-20T04:52:57.392Z,13.50
2022-09-20T04:55:32.500Z,13.87
2022-09-20T04:58:19.352Z,14.00
2022-09-20T05:01:17.199Z,13.80
2022-09-20T05:04:14.844Z,14.40
2022-09-20T05:07:18.268Z,14.57
2022-09-20T05:10:07.374Z,14.63
2022-09-20T05:13:00.416Z,14.63
2022-09-20T05:15:43.107Z,14.63
2022-09-20T05:18:36.215Z,14.10
2022-09-20T05:21:12.062Z,14.23
2022-09-20T05:24:17.719Z,14.10
2022-09-20T05:27:14.156Z,14.57
2022-09-20T05:30:10.037Z,13.97
2022-09-20T05:32:42.538Z,14.43
2022-09-20T05:35:39.327Z,13.77
2022-09-20T05:38:19.315Z,14.00
2022-09-20T05:41:14.163Z,14.10
2022-09-20T05:44:15.123Z,14.13
2022-09-20T05:47:00.430Z,14.27
2022-09-20T05:49:55.199Z,14.13
2022-09-20T05:52:34.131Z,13.83
2022-09-20T05:55:16.019Z,14.03
2022-09-20T05:57:49.527Z,13.90
2022-09-20T06:00:17.510Z,14.07
2022-09-20T06:03:09.653Z,13.47
2022-09-20T06:05:42.920Z,14.20
2022-09-20T06:08:37.119Z,14.50
2022-09-20T06:11:31.592Z,14.20
2022-09-20T06:14:10.171Z,14.07
2022-09-20T06:17:19.131Z,14.00
2022-09-20T06:20:00.831Z,14.50
2022-09-20T06:22:32.402Z,14.50
2022-09-20T06:25:12.610Z,14.60
2022-09-20T06:27:48.348Z,14.80
2022-09-20T06:30:18.852Z,14.40
2022-09-20T06:33:00.824Z,13.53
2022-09-20T06:35:39.084Z,13.67
2022-09-20T06:38:43.257Z,14.53
2022-09-20T06:41:29.887Z,15.82
2022-09-20T06:43:59.174Z,15.27
2022-09-20T06:46:31.469Z,15.43
2022-09-20T06:48:59.281Z,14.93
2022-09-20T06:51:28.792Z,15.63
2022-09-20T06:53:57.479Z,15.30
2022-09-20T06:56:28.193Z,14.87
2022-09-20T06:58:55.391Z,15.63
2022-09-20T07:01:30.282Z,15.00
2022-09-20T07:03:58.925Z,15.67
2022-09-20T07:06:26.824Z,16.80
2022-09-20T07:08:53.628Z,15.43
2022-09-20T07:11:21.347Z,15.53
2022-09-20T07:13:52.090Z,15.63
2022-09-20T07:16:18.995Z,14.70
2022-09-20T07:18:46.600Z,15.93
2022-09-20T07:21:15.566Z,15.17
2022-09-20T07:23:42.507Z,15.40
2022-09-20T07:26:20.503Z,15.03
2022-09-20T07:28:47.588Z,13.87
2022-09-20T07:31:14.506Z,14.40
2022-09-20T07:33:41.537Z,14.30
2022-09-20T07:36:09.406Z,15.20
2022-09-20T07:38:36.237Z,14.33
2022-09-20T07:41:03.121Z,14.70
2022-09-20T07:43:31.350Z,14.73
2022-09-20T07:45:59.535Z,15.23
2022-09-20T07:48:30.057Z,15.00
2022-09-20T07:51:04.727Z,14.87
2022-09-20T07:53:35.198Z,13.70
2022-09-20T07:56:07.686Z,14.50
2022-09-20T07:58:36.128Z,14.33
2022-09-20T08:01:05.567Z,14.00
2022-09-20T08:03:33.660Z,14.33
2022-09-20T08:06:11.196Z,14.70
2022-09-20T08:08:40.721Z,15.27
2022-09-20T08:11:27.865Z,14.40
2022-09-20T08:14:11.299Z,14.63
2022-09-20T08:16:43.725Z,14.57
2022-09-20T08:19:16.039Z,14.67
2022-09-20T08:21:43.052Z,14.73
2022-09-20T08:24:10.157Z,15.03
2022-09-20T08:26:37.221Z,14.30
2022-09-20T08:29:05.966Z,14.63
2022-09-20T08:31:36.848Z,14.70
2022-09-20T08:34:06.898Z,14.87
2022-09-20T08:36:37.034Z,14.67
2022-09-20T08:41:58.058Z,14.77
2022-09-20T08:44:35.089Z,14.73
2022-09-20T08:47:21.466Z,14.30
2022-09-20T08:49:50.144Z,15.00
2022-09-20T08:52:23.253Z,14.83
2022-09-20T08:54:50.813Z,14.20
2022-09-20T08:57:20.432Z,14.70
2022-09-20T08:59:47.341Z,14.70
2022-09-20T09:02:17.605Z,14.47
2022-09-20T09:04:45.524Z,14.40
2022-09-20T09:07:14.741Z,14.37
2022-09-20T09:09:44.815Z,14.73
2022-09-20T09:12:37.703Z,14.40
2022-09-20T09:15:30.109Z,14.73
2022-09-20T09:17:56.944Z,14.67
2022-09-20T09:20:24.428Z,14.80
2022-09-20T09:23:02.820Z,14.80
2022-09-20T09:25:38.084Z,14.83
2022-09-20T09:28:07.727Z,14.93
2022-09-20T09:30:37.674Z,15.40
2022-09-20T09:33:28.267Z,15.03
2022-09-20T09:36:02.436Z,15.03
2022-09-20T09:38:32.288Z,15.20
2022-09-20T09:41:01.904Z,14.40
2022-09-20T09:43:33.519Z,15.10
2022-09-20T09:46:22.214Z,15.37
2022-09-20T09:49:18.209Z,15.23
2022-09-20T09:52:04.748Z,14.80
2022-09-20T09:54:35.665Z,14.60
2022-09-20T09:57:24.055Z,15.13
2022-09-20T10:00:19.531Z,15.80
2022-09-20T10:03:18.725Z,15.37
2022-09-20T10:06:00.574Z,14.90
2022-09-20T10:08:54.716Z,14.60
2022-09-20T10:11:28.603Z,15.50
2022-09-20T10:14:20.124Z,15.13
2022-09-20T10:17:05.390Z,14.70
2022-09-20T10:20:08.147Z,15.57
2022-09-20T10:26:29.097Z,14.80
2022-09-20T10:29:12.598Z,15.13
2022-09-20T10:31:44.973Z,14.80
2022-09-20T10:34:28.412Z,14.43
2022-09-20T10:36:58.981Z,14.33
2022-09-20T10:39:33.160Z,15.57
2022-09-20T10:42:58.364Z,14.43
2022-09-20T10:46:03.330Z,14.00
2022-09-20T10:48:48.610Z,14.40
2022-09-20T10:51:18.244Z,14.50
2022-09-20T10:53:59.835Z,14.67
2022-09-20T10:56:28.720Z,14.33
2022-09-20T10:58:59.215Z,15.00
2022-09-20T11:01:32.053Z,14.50
2022-09-20T11:04:10.655Z,14.97
2022-09-20T11:07:07.462Z,14.70
2022-09-20T11:09:40.592Z,14.63
2022-09-20T11:12:14.852Z,14.87
2022-09-20T11:14:51.182Z,15.23
2022-09-20T11:17:41.878Z,14.87
2022-09-20T11:20:46.652Z,14.37
2022-09-20T11:23:17.232Z,14.90
2022-09-20T11:25:55.611Z,14.73
2022-09-20T11:28:25.638Z,14.70
2022-09-20T11:31:14.872Z,14.87
2022-09-20T11:33:46.946Z,14.33
2022-09-20T11:36:27.186Z,14.53
2022-09-20T11:39:20.920Z,14.60
2022-09-20T11:41:51.897Z,15.40
2022-09-20T11:44:19.922Z,14.77
2022-09-20T11:47:00.687Z,14.97
2022-09-20T11:49:59.836Z,15.40
2022-09-20T11:53:28.144Z,15.37
2022-09-20T11:56:11.194Z,15.37
2022-09-20T11:58:53.389Z,16.17
2022-09-20T12:01:42.805Z,16.33
2022-09-20T12:04:38.687Z,15.77
2022-09-20T12:07:38.113Z,15.33
2022-09-20T12:10:22.392Z,15.50
2022-09-20T12:12:59.491Z,16.03
2022-09-20T12:15:28.340Z,15.27
2022-09-20T12:17:55.583Z,16.07
2022-09-20T12:20:34.854Z,16.60
2022-09-20T12:23:40.458Z,16.33
2022-09-20T12:26:20.768Z,16.20
2022-09-20T12:29:26.746Z,16.13
2022-09-20T12:31:56.428Z,15.50
2022-09-20T12:34:26.165Z,16.17
2022-09-20T12:36:55.799Z,15.20
2022-09-20T12:39:30.354Z,16.03
2022-09-20T12:41:58.636Z,16.00
2022-09-20T12:44:47.406Z,16.03
2022-09-20T12:47:20.757Z,15.70
2022-09-20T12:50:06.542Z,16.33
2022-09-20T12:52:53.904Z,16.73
2022-09-20T12:55:32.884Z,15.60
2022-09-20T12:58:14.704Z,16.37
2022-09-20T13:00:59.860Z,16.10
2022-09-20T13:03:28.480Z,16.03
2022-09-20T13:06:08.847Z,16.60
2022-09-20T13:08:50.145Z,17.00
2022-09-20T13:11:20.769Z,16.80
2022-09-20T13:14:06.548Z,16.73
2022-09-20T13:16:36.719Z,16.83
2022-09-20T13:19:16.548Z,16.10
2022-09-20T13:22:17.497Z,15.87
2022-09-20T13:24:48.393Z,16.37
2022-09-20T13:27:25.878Z,16.60
2022-09-20T13:29:53.453Z,16.17
2022-09-20T13:32:30.373Z,16.60
2022-09-20T13:35:07.744Z,15.90
2022-09-20T13:37:35.768Z,16.17
2022-09-20T13:40:03.789Z,16.10
2022-09-20T13:42:35.736Z,16.90
2022-09-20T13:45:04.590Z,15.53
2022-09-20T13:47:32.251Z,16.97
2022-09-20T13:50:23.647Z,16.33
2022-09-20T13:52:55.888Z,15.83
2022-09-20T13:55:31.957Z,16.07
2022-09-20T13:58:17.876Z,16.27
2022-09-20T14:00:51.147Z,15.70
2022-09-20T14:03:19.591Z,15.90
2022-09-20T14:05:52.934Z,15.10
2022-09-20T14:08:33.194Z,16.23
2022-09-20T14:11:14.268Z,15.00
2022-09-20T14:13:44.608Z,15.37
2022-09-20T14:16:12.578Z,16.13
2022-09-20T14:18:41.350Z,16.27
2022-09-20T14:21:10.112Z,15.50
2022-09-20T14:23:59.746Z,15.27
2022-09-20T14:26:27.916Z,16.33
2022-09-20T14:28:55.395Z,15.87
2022-09-20T14:31:28.880Z,15.53
2022-09-20T14:33:59.301Z,15.77
2022-09-20T14:36:28.778Z,15.63
2022-09-20T14:38:59.044Z,15.97
2022-09-20T14:41:40.497Z,16.60
2022-09-20T14:44:42.539Z,15.50
2022-09-20T14:47:16.174Z,15.83
2022-09-20T14:49:46.068Z,16.30
2022-09-20T14:52:29.828Z,16.23
2022-09-20T14:55:00.780Z,16.10
2022-09-20T14:57:28.560Z,16.57
2022-09-20T14:59:59.248Z,16.60
2022-09-20T15:02:26.779Z,16.40
2022-09-20T15:05:00.309Z,17.73
2022-09-20T15:07:27.523Z,16.67
2022-09-20T15:09:54.347Z,16.77
2022-09-20T15:12:21.582Z,16.70
2022-09-20T15:14:48.968Z,17.13
2022-09-20T15:17:19.145Z,16.60
2022-09-20T15:19:47.620Z,17.27
2022-09-20T15:22:15.094Z,17.20
2022-09-20T15:24:42.970Z,17.67
2022-09-20T15:27:12.247Z,16.47
2022-09-20T15:29:39.197Z,16.47
2022-09-20T15:32:06.613Z,16.77
2022-09-20T15:34:33.445Z,17.20
2022-09-20T15:37:00.303Z,16.80
2022-09-20T15:39:28.043Z,16.80
2022-09-20T15:41:54.926Z,17.40
2022-09-20T15:44:22.120Z,16.93
2022-09-20T15:46:50.870Z,16.60
2022-09-20T15:49:17.774Z,18.23
2022-09-20T15:51:45.296Z,16.93
2022-09-20T15:54:14.664Z,16.83
2022-09-20T15:56:42.031Z,17.73
2022-09-20T15:59:11.031Z,16.90
2022-09-20T16:01:40.188Z,17.27
2022-09-20T16:04:19.343Z,17.20
2022-09-20T16:06:49.384Z,17.43
2022-09-20T16:09:18.246Z,18.17
2022-09-20T16:11:45.776Z,17.80
2022-09-20T16:14:12.756Z,17.20
2022-09-20T16:16:41.061Z,17.53
2022-09-20T16:19:23.987Z,17.27
2022-09-20T16:21:59.292Z,15.80
2022-09-20T16:24:29.053Z,16.07
2022-09-20T16:26:56.193Z,17.43
2022-09-20T16:29:23.539Z,16.73
2022-09-20T16:31:50.921Z,16.80
2022-09-20T16:34:32.315Z,16.70
2022-09-20T16:37:07.917Z,17.42
2022-09-20T16:39:34.808Z,17.07
2022-09-20T16:42:04.851Z,16.17
2022-09-20T16:44:34.042Z,16.80
2022-09-20T16:47:01.503Z,16.10
2022-09-20T16:49:28.822Z,16.10
2022-09-20T16:51:56.175Z,15.47
2022-09-20T16:54:23.402Z,16.40
2022-09-20T16:56:51.286Z,15.73
2022-09-20T16:59:23.733Z,15.67
2022-09-20T17:01:51.258Z,15.07
2022-09-20T17:04:19.044Z,15.13
2022-09-20T17:06:46.765Z,15.97
2022-09-20T17:09:14.689Z,15.63
2022-09-20T17:11:47.365Z,15.73
2022-09-20T17:14:16.905Z,16.17
2022-09-20T17:16:47.536Z,16.03
2022-09-20T17:19:16.603Z,15.30
2022-09-20T17:21:46.203Z,15.97
2022-09-20T17:24:14.195Z,15.67
2022-09-20T17:26:44.666Z,15.80
2022-09-20T17:29:15.319Z,15.17
2022-09-20T17:31:48.768Z,16.43
2022-09-20T17:34:21.569Z,15.70
2022-09-20T17:36:49.158Z,16.80
2022-09-20T17:39:16.640Z,16.77
2022-09-20T17:41:46.155Z,16.60
2022-09-20T17:44:14.065Z,16.60
2022-09-20T17:46:46.112Z,17.13
2022-09-20T17:49:15.570Z,17.80
2022-09-20T17:51:45.172Z,17.80
2022-09-20T17:54:14.013Z,18.37
2022-09-20T17:56:47.211Z,17.03
2022-09-20T17:59:18.186Z,17.87
2022-09-20T18:01:49.411Z,17.83
2022-09-20T18:04:16.480Z,17.03
2022-09-20T18:06:48.416Z,17.43
2022-09-20T18:09:17.403Z,17.73
2022-09-20T18:11:48.690Z,18.53
2022-09-20T18:14:21.261Z,17.50
2022-09-20T18:16:48.117Z,17.43
2022-09-20T18:19:16.214Z,17.47
2022-09-20T18:21:43.435Z,17.73
2022-09-20T18:24:11.621Z,18.17
2022-09-20T18:26:38.859Z,17.63
2022-09-20T18:29:18.910Z,16.77
2022-09-20T18:31:50.609Z,17.47
2022-09-20T18:34:19.938Z,17.70
2022-09-20T18:36:52.960Z,16.80
2022-09-20T18:39:21.983Z,16.77
2022-09-20T18:41:50.415Z,15.87
2022-09-20T18:44:18.681Z,17.30
2022-09-20T18:46:49.188Z,16.27
2022-09-20T18:49:17.071Z,16.57
2022-09-20T18:51:44.681Z,15.43
2022-09-20T18:54:12.465Z,16.47
2022-09-20T18:56:41.798Z,17.20
2022-09-20T18:59:21.366Z,16.57
2022-09-20T19:01:52.784Z,16.90
2022-09-20T19:04:31.746Z,17.07
2022-09-20T19:07:33.001Z,17.63
2022-09-20T19:10:05.973Z,16.40
2022-09-20T19:12:51.574Z,16.87
2022-09-20T19:15:36.522Z,16.80
2022-09-20T19:18:06.428Z,17.53
2022-09-20T19:21:11.877Z,16.57
2022-09-20T19:24:03.259Z,16.63
2022-09-20T19:26:38.139Z,17.27
2022-09-20T19:29:17.176Z,17.30
2022-09-20T19:31:44.428Z,15.87
2022-09-20T19:34:21.335Z,16.23
2022-09-20T19:36:53.865Z,16.47
2022-09-20T19:39:32.638Z,16.50
2022-09-20T19:42:36.254Z,16.00
2022-09-20T19:45:20.863Z,16.80
2022-09-20T19:48:11.741Z,16.33
2022-09-20T19:50:46.531Z,16.33
2022-09-20T19:53:18.732Z,16.27
2022-09-20T19:55:57.128Z,15.53
2022-09-20T19:58:24.222Z,15.60
2022-09-20T20:00:51.819Z,15.63
2022-09-20T20:03:19.222Z,16.17
2022-09-20T20:06:02.379Z,16.63
2022-09-20T20:08:48.748Z,16.47
2022-09-20T20:11:27.165Z,15.43
2022-09-20T20:14:21.206Z,25.27
2022-09-20T20:17:11.465Z,17.83
2022-09-20T20:19:54.629Z,18.47
2022-09-20T20:22:29.320Z,23.20
2022-09-20T20:24:57.462Z,17.87
2022-09-20T20:27:28.212Z,17.60
2022-09-20T20:29:55.762Z,17.60
2022-09-20T20:32:23.368Z,17.33
2022-09-20T20:34:50.385Z,20.67
2022-09-20T20:37:18.137Z,18.20
2022-09-20T20:39:45.079Z,17.40
2022-09-20T20:42:13.156Z,17.60
2022-09-20T20:44:41.143Z,18.07
2022-09-20T20:47:08.182Z,17.23
2022-09-20T20:49:35.999Z,16.83
2022-09-20T20:52:05.161Z,17.20
2022-09-20T20:54:32.632Z,17.20
2022-09-20T20:56:59.576Z,16.37
2022-09-20T20:59:26.715Z,16.03
2022-09-20T21:01:53.535Z,15.90
2022-09-20T21:04:21.784Z,15.43
2022-09-20T21:06:50.444Z,15.63
2022-09-20T21:09:17.478Z,14.60
2022-09-20T21:11:44.747Z,15.07
2022-09-20T21:14:12.850Z,15.27
2022-09-20T21:16:45.145Z,15.50
2022-09-20T21:19:15.116Z,15.50
2022-09-20T21:21:43.547Z,15.20
2022-09-20T21:24:12.915Z,15.37
2022-09-20T21:26:40.602Z,15.63
2022-09-20T21:29:10.942Z,15.03
2022-09-20T21:31:43.627Z,15.47
2022-09-20T21:34:12.499Z,15.03
2022-09-20T21:36:44.760Z,15.47
2022-09-20T21:39:12.623Z,15.03
2022-09-20T21:41:40.267Z,15.13
2022-09-20T21:44:09.816Z,15.23
2022-09-20T21:46:40.460Z,15.10
2022-09-20T21:49:11.700Z,14.97
2022-09-20T21:51:41.481Z,15.20
2022-09-20T21:54:09.135Z,15.83
2022-09-20T21:56:37.219Z,15.37
2022-09-20T21:59:06.327Z,15.20
2022-09-20T22:01:35.943Z,16.53
2022-09-20T22:04:08.822Z,15.80
2022-09-20T22:06:43.792Z,15.93
2022-09-20T22:09:17.792Z,15.60
2022-09-20T22:11:46.955Z,15.17
2022-09-20T22:14:15.326Z,15.30
2022-09-20T22:16:44.439Z,16.13
2022-09-20T22:19:13.405Z,15.73
2022-09-20T22:21:43.200Z,15.70
2022-09-20T22:24:11.987Z,15.40
2022-09-20T22:26:41.591Z,15.50
2022-09-20T22:29:09.379Z,15.00
2022-09-20T22:31:47.164Z,14.80
2022-09-20T22:34:16.827Z,15.70
2022-09-20T22:36:43.991Z,14.70
2022-09-20T22:39:12.511Z,14.90
2022-09-20T22:41:44.494Z,15.67
2022-09-20T22:44:11.677Z,15.60
2022-09-20T22:46:38.893Z,15.33
2022-09-20T22:49:07.154Z,15.67
2022-09-20T22:51:34.023Z,15.93
2022-09-20T22:54:06.254Z,15.27
2022-09-20T22:56:33.681Z,15.23
2022-09-20T22:59:08.787Z,15.47
2022-09-20T23:01:47.247Z,14.27
2022-09-20T23:04:19.192Z,14.83
2022-09-20T23:06:48.154Z,14.83
2022-09-20T23:09:18.028Z,15.07
2022-09-20T23:11:45.237Z,15.03
2022-09-20T23:14:14.010Z,14.80
2022-09-20T23:16:41.214Z,15.03
2022-09-20T23:19:09.029Z,15.20
2022-09-20T23:21:38.311Z,15.17
2022-09-20T23:24:07.643Z,15.20
2022-09-20T23:26:36.164Z,14.67
2022-09-20T23:29:07.922Z,15.03
2022-09-20T23:31:37.074Z,14.80
2022-09-20T23:34:06.198Z,14.47
2022-09-20T23:36:36.187Z,14.50
2022-09-20T23:39:03.110Z,14.60
2022-09-20T23:41:30.408Z,14.97
2022-09-20T23:43:57.640Z,14.90
2022-09-20T23:46:26.823Z,14.43
2022-09-20T23:48:54.050Z,15.20
2022-09-20T23:51:25.067Z,14.40
2022-09-20T23:53:53.362Z,15.20
2022-09-20T23:56:21.470Z,14.87
2022-09-20T23:58:49.046Z,14.70
